Tiempo atmosférico en la estación meteorológica de Priego de Cordoba, Córdoba (520 m.)



Fecha
DESCASC
Temp. máxima en grados centígrados (hora)
DESCASC
Temp. mínima en grados centígrados (hora)
DESCASC
Temp. media en grados centígrados
DESCASC
Racha de viento máxima en m/sg (hora)
DESCASC
Velocidad máxima media en intervalos de 10 minutos(hora)
DESCASC
Precipitaciones diarias en mm
DESCASC
Precipitaciones de 00:00 a 06:00 en mm
DESCASC
Precipitaciones de 06:00 a 12:00 en mm
DESCASC
Precipitaciones de 12:00 a 18:00 en mm
DESCASC
Precipitaciones de 18:00 a 24:00 en mm
DESCASC
22-08-2019 34.5 (18:10) 19.2 (07:40) 26.9 11.39 (20:10) 7.78 (19:40) 0 0 0 0 0
21-08-2019 33.1 (17:10) 19.2 (06:30) 26.1 10 (18:20) 6.94 (18:30) 0 0 0 0 0
20-08-2019 33.9 (17:40) 18.1 (08:10) 26 8.61 (00:10) 6.67 (00:50) 0 0 0 0 0
19-08-2019 34.9 (16:30) 17.7 (07:50) 26.3 10.28 (17:50) 7.22 (17:40) 0 0 0 0 0
18-08-2019 35.4 (17:20) 18.8 (00:00) 27.1 11.67 (20:10) 6.94 (18:20) 0 0 0 0 0
17-08-2019 38.3 (17:00) 20.1 (00:00) 29.2 10.28 (20:10) 6.67 (18:20) 0 0 0 0 0
16-08-2019 37.6 (17:00) 19.9 (00:00) 28.7 9.72 (18:10) 5.56 (17:10) 0 0 0 0 0
15-08-2019 36.6 (18:30) 19.1 (00:00) 27.8 10 (16:50) 6.11 (16:50) 0 0 0 0 0
14-08-2019 34.8 (16:00) 17.5 (00:00) 26.1 8.61 (00:50) 6.67 (00:50) 0 0 0 0 0
13-08-2019 33.4 (17:40) 15.2 (00:00) 24.3 8.89 (18:50) 5.28 (21:20) 0 0 0 0 0
12-08-2019 32.2 (17:30) 16.7 (00:00) 24.5 8.06 (00:20) 5 (11:40) 0 0 0 0 0
11-08-2019 32.4 (16:30) 18.5 (00:00) 25.5 10.28 (14:30) 6.39 (04:10) 0 0 0 0 0
10-08-2019 35.1 (17:10) 19.6 (00:00) 27.3 9.17 (23:40) 6.11 (23:50) 0 0 0 0 0
09-08-2019 34.5 (16:20) 18.5 (00:00) 26.5 10.28 (01:00) 6.94 (01:20) 0 0 0 0 0
08-08-2019 36.7 (16:40) 16.8 (00:00) 26.8 9.44 (16:10) 6.94 (15:30) 0 0 0 0 0
07-08-2019 33.8 (16:40) 18.7 (00:00) 26.3 8.33 (00:10) 5.28 (14:50) 0 0 0 0 0
06-08-2019 37.1 (17:40) 17.5 (00:00) 27.3 8.89 (16:00) 5.83 (16:00) 0 0 0 0 0
05-08-2019 36.9 (16:50) 18.2 (00:00) 27.6 9.44 (17:40) 6.67 (19:20) 0 0 0 0 0
04-08-2019 36.1 (17:40) 19.3 (00:00) 27.7 8.89 (00:10) 6.11 (18:40) 0 0 0 0 0
03-08-2019 35.8 (16:50) 19.1 (00:00) 27.4 8.61 (17:40) 6.11 (23:10) 0 0 0 0 0
02-08-2019 36.4 (17:00) 17.8 (00:00) 27.1 8.61 (18:20) 6.11 (23:20) 0 0 0 0 0
01-08-2019 34.1 (18:20) 19.2 (00:00) 26.6 9.17 (02:50) 6.67 (02:50) 0 0 0 0 0
31-07-2019 35.7 (16:40) 17.9 (00:00) 26.8 11.39 (20:30) 8.06 (20:30) 0 0 0 0 0
30-07-2019 35.3 (16:50) 16.3 (00:00) 25.8 7.78 (17:10) 4.72 (18:40) 0 0 0 0 0
29-07-2019 33.4 (18:30) 17.9 (00:00) 25.7 9.72 (16:30) 6.11 (00:20) 0 0 0 0 0
28-07-2019 31.5 (16:30) 19 (00:00) 25.3 8.33 (16:50) 5 (01:10) 0 0 0 0 0
27-07-2019 27.2 (17:50) 17.1 (00:00) 22.2 11.67 (15:50) 7.5 (22:50) 0 0 0 0 0
26-07-2019 29.6 (17:10) 19.8 (00:00) 24.7 11.94 (21:20) 8.61 (17:40) 0 0 0 0 0

Gráficas

Temp. máximas Temp. mínimas Temp. medias Precipitaciones Rachas de viento máximas Velocidades máximas media en intervalos de 10 minutos

Datos horarios

Fecha y hora oficial Temperatura (ºC) Velocidad del viento (km/h) Dirección del viento Racha (km/h) Dirección de racha Precipitación (mm) Presión (hPa) Tendencia (hPa) Humedad (%)
2019-08-24 23:00:00 25.8 19 Sudoeste 30 Sudoeste 0 -- -- 51
2019-08-24 22:00:00 27.1 19 Sudoeste 32 Sudoeste 0 -- -- 49
2019-08-24 21:00:00 28.8 24 Sudoeste 36 Sudoeste 0 -- -- 44
2019-08-24 20:00:00 31.6 26 Sudoeste 36 Sudoeste 0 -- -- 37
2019-08-24 19:00:00 33.8 19 Sudoeste 35 Sudoeste 0 -- -- 32
2019-08-24 18:00:00 34.5 10 Nordeste 20 Norte 0 -- -- 27
2019-08-24 17:00:00 34.1 9 Norte 22 Nordeste 0 -- -- 28
2019-08-24 16:00:00 34.4 12 Este 21 Este 0 -- -- 28
2019-08-24 15:00:00 33.6 11 Norte 22 Norte 0 -- -- 29
2019-08-24 14:00:00 32.4 11 Nordeste 21 Norte 0 -- -- 32
2019-08-24 13:00:00 30.6 10 Norte 19 Norte 0 -- -- 35
2019-08-24 12:00:00 28.7 10 Norte 16 Norte 0 -- -- 40
2019-08-24 11:00:00 26.9 7 Norte 12 Nordeste 0 -- -- 45
2019-08-24 10:00:00 23.9 6 Nordeste 10 Nordeste 0 -- -- 51
2019-08-24 09:00:00 19.7 3 Sudoeste 6 Sudoeste 0 -- -- 62
2019-08-24 08:00:00 18.4 2 Oeste 14 Nordeste 0 -- -- 65
2019-08-24 07:00:00 19.6 12 Nordeste 15 Nordeste 0 -- -- 61
2019-08-24 06:00:00 20.3 8 Nordeste 11 Nordeste 0 -- -- 59
2019-08-24 05:00:00 21.4 5 Nordeste 8 Nordeste 0 -- -- 57
2019-08-24 04:00:00 20.5 4 Sudoeste 14 Sudoeste 0 -- -- 57
2019-08-24 03:00:00 20.1 11 Sudoeste 13 Sudoeste 0 -- -- 57
2019-08-24 02:00:00 21.6 6 Sudoeste 11 Sudoeste 0 -- -- 53
2019-08-24 01:00:00 22.9 4 Sur 17 Sudoeste 0 -- -- 50
2019-08-24 00:00:00 23.9 12 Sudoeste 21 Sudoeste 0 -- -- 47
2019-08-23 23:00:00 25.2 15 Sur 22 Sudoeste 0 -- -- 44
2019-08-23 22:00:00 26.7 16 Sudoeste 31 Sudoeste 0 -- -- 42
2019-08-23 21:00:00 28.6 23 Sudoeste 33 Sudoeste 0 -- -- 38
2019-08-23 20:00:00 31.7 25 Sudoeste 36 Sudoeste 0 -- -- 30
2019-08-23 19:00:00 34.5 12 Norte 22 Noroeste 0 -- -- 24
2019-08-23 18:00:00 34.7 12 Norte 31 Norte 0 -- -- 23
2019-08-23 17:00:00 35.1 8 Sur 22 Norte 0 -- -- 22
2019-08-23 16:00:00 34.7 8 Noroeste 22 Norte 0 -- -- 23
2019-08-23 15:00:00 33.6 11 Sur 20 Sudoeste 0 -- -- 24
2019-08-23 14:00:00 32.6 6 Noroeste 19 Sudoeste 0 -- -- 26
2019-08-23 13:00:00 30.6 8 Noroeste 17 Sudoeste 0 -- -- 29
2019-08-23 12:00:00 29.9 4 Sudoeste 13 Sur 0 -- -- 31
2019-08-23 11:00:00 27.9 3 Sur 9 Oeste 0 -- -- 34
2019-08-23 10:00:00 25.1 4 Norte 6 Norte 0 -- -- 42
2019-08-23 09:00:00 22.1 0 Calma 7 Sudoeste 0 -- -- 56
2019-08-23 08:00:00 20.4 3 Sudoeste 6 Sudoeste 0 -- -- 61
2019-08-23 07:00:00 21.5 8 Oeste 13 Oeste 0 -- -- 57
2019-08-23 06:00:00 22.2 5 Sudoeste 12 Sudoeste 0 -- -- 58
2019-08-23 05:00:00 23.2 8 Sudoeste 16 Sudeste 0 -- -- 56
2019-08-23 04:00:00 24 8 Este 19 Sudeste 0 -- -- 57
2019-08-23 03:00:00 23.8 3 Sudeste 9 Norte 0 -- -- 57
2019-08-23 02:00:00 24.7 5 Sudoeste 24 Sur 0 -- -- 55
2019-08-23 01:00:00 23.5 12 Sudoeste 21 Sudoeste 0 -- -- 66
2019-08-23 00:00:00 24.3 12 Sudoeste 20 Sudoeste 0 -- -- 64
2019-08-22 23:00:00 25.3 15 Sudoeste 25 Sudoeste 0 -- -- 61
2019-08-22 22:00:00 26.3 16 Sudoeste 30 Sudoeste 0 -- -- 57
2019-08-22 21:00:00 27.8 24 Sudoeste 41 Sudoeste 0 -- -- 54
2019-08-22 20:00:00 30.5 23 Sudoeste 37 Sudoeste 0 -- -- 46
2019-08-22 19:00:00 34.1 10 Norte 23 Norte 0 -- -- 32
2019-08-22 18:00:00 34 6 Oeste 24 Nordeste 0 -- -- 32
2019-08-22 17:00:00 34.3 10 Este 25 Norte 0 -- -- 33
2019-08-22 16:00:00 33.6 12 Norte 22 Norte 0 -- -- 34
2019-08-22 15:00:00 32.6 10 Norte 26 Norte 0 -- -- 36
2019-08-22 14:00:00 30.9 10 Oeste 19 Noroeste 0 -- -- 41
2019-08-22 13:00:00 30.2 8 Norte 22 Nordeste 0 -- -- 44
2019-08-22 12:00:00 28.5 12 Norte 23 Norte 0 -- -- 49
2019-08-22 11:00:00 26.5 8 Norte 22 Norte 0 -- -- 58
2019-08-22 10:00:00 24.5 12 Nordeste 18 Norte 0 -- -- 62
2019-08-22 09:00:00 21.9 12 Nordeste 17 Nordeste 0 -- -- 71
2019-08-22 08:00:00 19.4 0 Calma 10 Sudoeste 0 -- -- 78
2019-08-22 07:00:00 19.6 6 Sudoeste 10 Sudoeste 0 -- -- 78
2019-08-22 06:00:00 20.6 4 Sudoeste 14 Sudoeste 0 -- -- 73
2019-08-22 05:00:00 21.3 8 Sudoeste 10 Sudoeste 0 -- -- 72
2019-08-22 04:00:00 22.3 6 Sudoeste 17 Sudoeste 0 -- -- 68
2019-08-22 03:00:00 22.7 10 Sudoeste 17 Sudoeste 0 -- -- 65
2019-08-22 02:00:00 22.7 10 Sudoeste 14 Sudoeste 0 -- -- 65
2019-08-22 01:00:00 24 8 Sudoeste 12 Sudoeste 0 -- -- 60
2019-08-22 00:00:00 24.9 5 Sur 19 Sudoeste 0 -- -- 59
2019-08-21 23:00:00 25.7 17 Sur 28 Sudoeste 0 -- -- 57
2019-08-21 22:00:00 26.9 17 Sudoeste 26 Sudoeste 0 -- -- 52
2019-08-21 21:00:00 28.4 14 Sudoeste 30 Oeste 0 -- -- 47
2019-08-21 20:00:00 30.2 19 Sudoeste 32 Sudoeste 0 -- -- 43
2019-08-21 19:00:00 31.4 19 Sudoeste 36 Sudoeste 0 -- -- 40
2019-08-21 18:00:00 32.2 23 Sudoeste 33 Sudoeste 0 -- -- 37
2019-08-21 17:00:00 32.5 12 Oeste 26 Sudoeste 0 -- -- 37
2019-08-21 16:00:00 32.8 4 Sudeste 27 Sur 0 -- -- 35
2019-08-21 15:00:00 31.9 7 Sudoeste 21 Sudoeste 0 -- -- 37
2019-08-21 14:00:00 29.8 10 Sudoeste 23 Sudoeste 0 -- -- 42
2019-08-21 13:00:00 28.9 10 Oeste 24 Sur 0 -- -- 46
2019-08-21 12:00:00 28.3 11 Sudoeste 19 Sudoeste 0 -- -- 50
2019-08-21 11:00:00 26.9 6 Oeste 15 Oeste 0 -- -- 54
2019-08-21 10:00:00 24.4 6 Norte 12 Nordeste 0 -- -- 48
2019-08-21 09:00:00 21.6 7 Norte 10 Norte 0 -- -- 53
2019-08-21 08:00:00 20.1 0 Calma 6 Sudoeste 0 -- -- 63
2019-08-21 07:00:00 19.3 6 Sudoeste 11 Sudoeste 0 -- -- 64
2019-08-21 06:00:00 19.8 7 Sudoeste 9 Sudoeste 0 -- -- 59
2019-08-21 05:00:00 21 2 Noroeste 10 Sudoeste 0 -- -- 52
2019-08-21 04:00:00 21.3 5 Sudoeste 10 Oeste 0 -- -- 49
2019-08-21 03:00:00 22.5 8 Sudoeste 15 Sur 0 -- -- 46
2019-08-21 02:00:00 24.2 13 Sur 17 Sur 0 -- -- 47
2019-08-21 01:00:00 24 13 Sudoeste 20 Sudoeste 0 -- -- 36
2019-08-21 00:00:00 23.9 11 Sudoeste 13 Sudoeste 0 -- -- 25
2019-08-20 23:00:00 26.3 6 Sudoeste 11 Sudoeste 0 -- -- 21
2019-08-20 22:00:00 27.8 8 Sudoeste 12 Sudoeste 0 -- -- 20
2019-08-20 21:00:00 30.5 5 Oeste 13 Sudoeste 0 -- -- 19
2019-08-20 20:00:00 32.9 9 Noroeste 25 Norte 0 -- -- 18
2019-08-20 19:00:00 33.3 9 Norte 28 Noroeste 0 -- -- 18
2019-08-20 18:00:00 33.4 16 Norte 27 Norte 0 -- -- 19
2019-08-20 17:00:00 33.7 11 Norte 24 Norte 0 -- -- 20
2019-08-20 16:00:00 33 13 Nordeste 28 Norte 0 -- -- 22
2019-08-20 15:00:00 32.4 13 Norte 27 Norte 0 -- -- 23
2019-08-20 14:00:00 31.7 10 Norte 23 Norte 0 -- -- 24
2019-08-20 13:00:00 29.8 5 Norte 15 Norte 0 -- -- 25
2019-08-20 12:00:00 28 9 Nordeste 15 Norte 0 -- -- 29
2019-08-20 11:00:00 26.9 9 Norte 13 Noroeste 0 -- -- 32
2019-08-20 10:00:00 23 4 Sudoeste 10 Sudoeste 0 -- -- 39
2019-08-20 09:00:00 19.5 6 Sur 11 Sudoeste 0 -- -- 47
2019-08-20 08:00:00 18.3 7 Sudoeste 10 Oeste 0 -- -- 48
2019-08-20 07:00:00 19.9 8 Sudoeste 10 Sudoeste 0 -- -- 43
2019-08-20 06:00:00 20.6 7 Sudoeste 14 Sudoeste 0 -- -- 40
2019-08-20 05:00:00 21.4 10 Sudoeste 19 Sudoeste 0 -- -- 39
2019-08-20 04:00:00 21.6 12 Sudoeste 18 Sudoeste 0 -- -- 41
2019-08-20 03:00:00 22.8 11 Sur 20 Sur 0 -- -- 39
2019-08-20 02:00:00 23.8 12 Sudoeste 23 Sudoeste 0 -- -- 39
2019-08-20 01:00:00 25.2 22 Sudoeste 31 Sudoeste 0 -- -- 39
2019-08-20 00:00:00 26.1 20 Sudoeste 33 Sudoeste 0 -- -- 40
2019-08-19 23:00:00 27.3 23 Sudoeste 31 Sudoeste 0 -- -- 39
2019-08-19 22:00:00 28.2 15 Sudoeste 23 Sudoeste 0 -- -- 36
2019-08-19 21:00:00 30.2 14 Sudoeste 26 Sudoeste 0 -- -- 29
2019-08-19 20:00:00 32.4 16 Sudoeste 33 Sudoeste 0 -- -- 27
2019-08-19 19:00:00 33.2 22 Sudoeste 34 Sudoeste 0 -- -- 26
2019-08-19 18:00:00 33.8 23 Sudoeste 37 Sudoeste 0 -- -- 26
2019-08-19 17:00:00 34.1 24 Sudoeste 36 Oeste 0 -- -- 23
2019-08-19 16:00:00 34.6 19 Sudoeste 31 Oeste 0 -- -- 22
2019-08-19 15:00:00 34.6 5 Oeste 17 Noroeste 0 -- -- 28
2019-08-19 14:00:00 33.1 10 Sudoeste 19 Oeste 0 -- -- 26
2019-08-19 13:00:00 31.3 8 Sudoeste 17 Sur 0 -- -- 29
2019-08-19 12:00:00 29 8 Noroeste 14 Noroeste 0 -- -- 39
2019-08-19 11:00:00 27.9 4 Sur 11 Este 0 -- -- 39
2019-08-19 10:00:00 23 4 Sudoeste 6 Sudoeste 0 -- -- 47
2019-08-19 09:00:00 18.8 6 Sudoeste 10 Sudoeste 0 -- -- 58
2019-08-19 08:00:00 17.7 5 Sur 9 Sudoeste 0 -- -- 59
2019-08-19 07:00:00 18.1 4 Sur 9 Sudoeste 0 -- -- 58
2019-08-19 06:00:00 19.6 6 Sudoeste 13 Sudoeste 0 -- -- 55
2019-08-19 05:00:00 21.2 10 Sudoeste 14 Sur 0 -- -- 49
2019-08-19 04:00:00 22.6 9 Sur 13 Sur 0 -- -- 47
2019-08-19 03:00:00 23.2 10 Sudoeste 18 Sudoeste 0 -- -- 45
2019-08-19 02:00:00 24.1 10 Sudoeste 17 Sudoeste 0 -- -- 42
2019-08-19 01:00:00 25.1 10 Sudoeste 18 Sur 0 -- -- 39
2019-08-19 00:00:00 26.5 14 Sudoeste 28 Sudoeste 0 -- -- 36
2019-08-18 23:00:00 27.7 15 Sur 31 Sudoeste 0 -- -- 34
2019-08-18 22:00:00 29 18 Sudoeste 27 Sudoeste 0 -- -- 36
2019-08-18 21:00:00 30.7 14 Sudoeste 42 Oeste 0 -- -- 33
2019-08-18 20:00:00 32.6 20 Sudoeste 34 Sudoeste 0 -- -- 32
2019-08-18 19:00:00 34.1 24 Sudoeste 35 Sudoeste 0 -- -- 27
2019-08-18 18:00:00 35 23 Sudoeste 33 Sudoeste 0 -- -- 23
2019-08-18 17:00:00 35.2 21 Sudoeste 35 Oeste 0 -- -- 23
2019-08-18 16:00:00 34.8 15 Sudoeste 29 Sudoeste 0 -- -- 24
2019-08-18 15:00:00 34.9 22 Sudoeste 35 Sudoeste 0 -- -- 23
2019-08-18 14:00:00 34.2 18 Sudoeste 28 Sudoeste 0 -- -- 25
2019-08-18 13:00:00 34.4 12 Nordeste 22 Nordeste 0 -- -- 27
2019-08-18 12:00:00 32.4 6 Sudoeste 12 Sudoeste 0 -- -- 27
2019-08-18 11:00:00 29.9 5 Norte 10 Norte 0 -- -- 31
2019-08-18 10:00:00 27.1 3 Nordeste 5 Este 0 -- -- 36
2019-08-18 09:00:00 20.8 3 Sudoeste 11 Sudoeste 0 -- -- 47
2019-08-18 08:00:00 18.9 7 Sudoeste 12 Sudoeste 0 -- -- 51
2019-08-18 07:00:00 19.8 11 Sudoeste 13 Sudoeste 0 -- -- 48
2019-08-18 06:00:00 21.3 3 Sudoeste 13 Sudoeste 0 -- -- 43
2019-08-18 05:00:00 22.6 12 Sudoeste 15 Sudoeste 0 -- -- 40
2019-08-18 04:00:00 24.2 8 Sudoeste 10 Sudoeste 0 -- -- 36
2019-08-18 03:00:00 26.3 9 Sur 16 Sur 0 -- -- 31
2019-08-18 02:00:00 26.8 4 Sudeste 20 Sur 0 -- -- 31
2019-08-18 01:00:00 27.8 17 Sur 21 Sur 0 -- -- 30
2019-08-18 00:00:00 28.7 13 Sur 24 Sur 0 -- -- 32
2019-08-17 23:00:00 30.3 13 Sur 19 Sudeste 0 -- -- 31
2019-08-17 22:00:00 31.4 15 Sur 24 Sudoeste 0 -- -- 30
2019-08-17 21:00:00 33.7 19 Sudoeste 37 Sudoeste 0 -- -- 27
2019-08-17 20:00:00 36.3 19 Sudoeste 33 Sudoeste 0 -- -- 22
2019-08-17 19:00:00 37.4 20 Sudoeste 30 Sudoeste 0 -- -- 21
2019-08-17 18:00:00 38 23 Sudoeste 36 Sudoeste 0 -- -- 19
2019-08-17 17:00:00 38.3 18 Sudoeste 37 Sudoeste 0 -- -- 19
2019-08-17 16:00:00 38.1 17 Sudoeste 31 Oeste 0 -- -- 20
2019-08-17 15:00:00 37 17 Sudoeste 32 Sudoeste 0 -- -- 20
2019-08-17 14:00:00 36.6 4 Sudeste 28 Sudoeste 0 -- -- 23
2019-08-17 13:00:00 35.3 9 Norte 19 Sudoeste 0 -- -- 25
2019-08-17 12:00:00 32.5 7 Oeste 11 Oeste 0 -- -- 30
2019-08-17 11:00:00 31 0 Calma 6 Sudoeste 0 -- -- 33
2019-08-17 10:00:00 25.2 5 Sudoeste 8 Sudoeste 0 -- -- 42
2019-08-17 09:00:00 21.8 5 Sudoeste 6 Sudoeste 0 -- -- 50
2019-08-17 08:00:00 20.4 4 Sudoeste 8 Sudoeste 0 -- -- 53
2019-08-17 07:00:00 20.7 4 Sudoeste 9 Sudoeste 0 -- -- 51
2019-08-17 06:00:00 21.3 8 Sudoeste 10 Sudoeste 0 -- -- 48
2019-08-17 05:00:00 22.7 8 Oeste 16 Sudoeste 0 -- -- 44
2019-08-17 04:00:00 23.3 10 Sudoeste 13 Sudoeste 0 -- -- 41
2019-08-17 03:00:00 25 9 Sudoeste 12 Sudoeste 0 -- -- 36
2019-08-17 02:00:00 26.6 8 Sur 12 Sur 0 -- -- 34
2019-08-17 01:00:00 27.2 10 Sur 19 Sur 0 -- -- 31
2019-08-17 00:00:00 28.1 15 Sur 27 Sur 0 -- -- 30
2019-08-16 23:00:00 29.4 12 Sur 17 Sur 0 -- -- 29
2019-08-16 22:00:00 31 11 Sudoeste 19 Sudoeste 0 -- -- 26
2019-08-16 21:00:00 33.3 13 Sudoeste 34 Oeste 0 -- -- 24
2019-08-16 20:00:00 35.5 18 Oeste 28 Sudoeste 0 -- -- 23
2019-08-16 19:00:00 36.7 17 Oeste 35 Sudoeste 0 -- -- 22
2019-08-16 18:00:00 37 15 Oeste 30 Sur 0 -- -- 22
2019-08-16 17:00:00 37.6 10 Sur 33 Sudoeste 0 -- -- 21
2019-08-16 16:00:00 36.9 15 Sudoeste 25 Sudoeste 0 -- -- 23
2019-08-16 15:00:00 35.6 13 Oeste 23 Sudoeste 0 -- -- 25
2019-08-16 14:00:00 34.9 9 Noroeste 21 Oeste 0 -- -- 27
2019-08-16 13:00:00 33.7 7 Oeste 18 Sudoeste 0 -- -- 28
2019-08-16 12:00:00 31.7 9 Sudoeste 15 Sudoeste 0 -- -- 32
2019-08-16 11:00:00 30.8 4 Sur 10 Sudeste 0 -- -- 34
2019-08-16 10:00:00 25.8 4 Sudoeste 7 Oeste 0 -- -- 43
2019-08-16 09:00:00 22.1 4 Sudoeste 6 Oeste 0 -- -- 50
2019-08-16 08:00:00 20 4 Sudoeste 15 Sudoeste 0 -- -- 55
2019-08-16 07:00:00 20.7 9 Sudoeste 15 Sudoeste 0 -- -- 53
2019-08-16 06:00:00 21.2 12 Sudoeste 13 Sudoeste 0 -- -- 52
2019-08-16 05:00:00 22.5 10 Sudoeste 17 Sudoeste 0 -- -- 48
2019-08-16 04:00:00 23.1 12 Sudoeste 15 Sudoeste 0 -- -- 44
2019-08-16 03:00:00 25.3 8 Sudoeste 19 Sur 0 -- -- 39
2019-08-16 02:00:00 26.4 15 Sur 22 Sur 0 -- -- 36
2019-08-16 01:00:00 27.3 16 Sur 28 Sudoeste 0 -- -- 34
2019-08-16 00:00:00 28.6 22 Sudoeste 33 Sudoeste 0 -- -- 32
2019-08-15 23:00:00 29.3 14 Sur 18 Sudoeste 0 -- -- 32
2019-08-15 22:00:00 30.7 10 Sudoeste 25 Sudoeste 0 -- -- 30
2019-08-15 21:00:00 33.3 10 Sudoeste 22 Oeste 0 -- -- 26
2019-08-15 20:00:00 35.4 9 Oeste 28 Oeste 0 -- -- 24
2019-08-15 19:00:00 36.6 7 Sudoeste 25 Noroeste 0 -- -- 23
2019-08-15 18:00:00 36.5 12 Norte 33 Norte 0 -- -- 25
2019-08-15 17:00:00 35.8 14 Norte 36 Norte 0 -- -- 26
2019-08-15 16:00:00 35.4 12 Norte 27 Norte 0 -- -- 28
2019-08-15 15:00:00 35.4 18 Nordeste 29 Norte 0 -- -- 27
2019-08-15 14:00:00 35.4 14 Norte 33 Norte 0 -- -- 28
2019-08-15 13:00:00 33.7 6 Norte 14 Noroeste 0 -- -- 30
2019-08-15 12:00:00 31.8 6 Sudoeste 11 Sudoeste 0 -- -- 35
2019-08-15 11:00:00 29 5 Norte 9 Norte 0 -- -- 41
2019-08-15 10:00:00 25 0 Calma 8 Sudoeste 0 -- -- 48
2019-08-15 09:00:00 21 6 Sudoeste 18 Oeste 0 -- -- 58
2019-08-15 08:00:00 19.3 9 Sudoeste 10 Sudoeste 0 -- -- 62
2019-08-15 07:00:00 21.1 2 Sur 13 Sudoeste 0 -- -- 59
2019-08-15 06:00:00 21.1 10 Sudoeste 13 Oeste 0 -- -- 58
2019-08-15 05:00:00 22.1 10 Sudoeste 15 Sudoeste 0 -- -- 55
2019-08-15 04:00:00 23 13 Sudoeste 16 Sudoeste 0 -- -- 53
2019-08-15 03:00:00 23.5 11 Sur 13 Sur 0 -- -- 52
2019-08-15 02:00:00 23.5 8 Sudoeste 15 Sudoeste 0 -- -- 51
2019-08-15 01:00:00 24.8 12 Sudoeste 15 Sur 0 -- -- 47
2019-08-15 00:00:00 26.4 10 Sur 14 Sur 0 -- -- 42
2019-08-14 23:00:00 27.3 9 Sudoeste 13 Sudoeste 0 -- -- 38
2019-08-14 22:00:00 29.4 5 Sudoeste 8 Sudoeste 0 -- -- 30
2019-08-14 21:00:00 31.6 4 Norte 20 Norte 0 -- -- 27
2019-08-14 20:00:00 33.4 11 Norte 24 Norte 0 -- -- 27
2019-08-14 19:00:00 33.7 14 Nordeste 30 Norte 0 -- -- 28
2019-08-14 18:00:00 34 14 Norte 27 Norte 0 -- -- 28
2019-08-14 17:00:00 33.1 9 Noroeste 28 Norte 0 -- -- 31
2019-08-14 16:00:00 34.8 16 Nordeste 28 Norte 0 -- -- 29
2019-08-14 15:00:00 33.3 4 Oeste 21 Sudoeste 0 -- -- 28
2019-08-14 14:00:00 32.6 8 Sur 19 Norte 0 -- -- 31
2019-08-14 13:00:00 31.2 8 Norte 17 Nordeste 0 -- -- 36
2019-08-14 12:00:00 29.5 10 Nordeste 18 Nordeste 0 -- -- 40
2019-08-14 11:00:00 27.7 5 Norte 10 Nordeste 0 -- -- 45
2019-08-14 10:00:00 23.4 0 Calma 8 Sudoeste 0 -- -- 61
2019-08-14 09:00:00 19.2 6 Sudoeste 10 Sudoeste 0 -- -- 69
2019-08-14 08:00:00 17.6 6 Sudoeste 9 Sudoeste 0 -- -- 72
2019-08-14 07:00:00 17.8 10 Sudoeste 13 Sudoeste 0 -- -- 74
2019-08-14 06:00:00 18.9 9 Sudoeste 14 Sudoeste 0 -- -- 73
2019-08-14 05:00:00 20.2 10 Sudoeste 14 Sudoeste 0 -- -- 69
2019-08-14 04:00:00 21.3 11 Sudoeste 15 Sur 0 -- -- 73
2019-08-14 03:00:00 22.7 12 Sur 23 Sudoeste 0 -- -- 68
2019-08-14 02:00:00 23.6 14 Sudoeste 28 Sur 0 -- -- 63
2019-08-14 01:00:00 24.8 23 Sudoeste 31 Sur 0 -- -- 60
2019-08-14 00:00:00 25.2 14 Sur 18 Sudoeste 0 -- -- 58
2019-08-13 23:00:00 26.4 11 Sudoeste 19 Sur 0 -- -- 55
2019-08-13 22:00:00 27.8 13 Sudoeste 26 Sudoeste 0 -- -- 51
2019-08-13 21:00:00 29.6 15 Sudoeste 24 Sudoeste 0 -- -- 44
2019-08-13 20:00:00 31.8 13 Norte 25 Noroeste 0 -- -- 22
2019-08-13 19:00:00 33 12 Noroeste 32 Nordeste 0 -- -- 20
2019-08-13 18:00:00 33.4 10 Noroeste 20 Oeste 0 -- -- 19
2019-08-13 17:00:00 33.3 11 Norte 26 Norte 0 -- -- 19
2019-08-13 16:00:00 32.6 12 Norte 31 Norte 0 -- -- 21
2019-08-13 15:00:00 32.1 13 Norte 27 Norte 0 -- -- 22
2019-08-13 14:00:00 31.9 13 Norte 23 Nordeste 0 -- -- 22
2019-08-13 13:00:00 30.7 9 Sur 22 Sudoeste 0 -- -- 24
2019-08-13 12:00:00 29.1 9 Sur 19 Sur 0 -- -- 28
2019-08-13 11:00:00 26.5 3 Noroeste 8 Noroeste 0 -- -- 25
2019-08-13 10:00:00 21.3 4 Sudoeste 9 Sudoeste 0 -- -- 33
2019-08-13 09:00:00 16.6 9 Sudoeste 16 Sudoeste 0 -- -- 40
2019-08-13 08:00:00 15.5 9 Sudoeste 11 Sudoeste 0 -- -- 40
2019-08-13 07:00:00 16.8 4 Sudoeste 7 Sudoeste 0 -- -- 36
2019-08-13 06:00:00 18.5 2 Sur 9 Sudoeste 0 -- -- 32
2019-08-13 05:00:00 20 8 Sur 15 Sudoeste 0 -- -- 28
2019-08-13 04:00:00 19.4 8 Sudoeste 12 Sudoeste 0 -- -- 30
2019-08-13 03:00:00 20.2 9 Sur 13 Oeste 0 -- -- 26
2019-08-13 02:00:00 20.4 6 Sudoeste 12 Sudoeste 0 -- -- 25
2019-08-13 01:00:00 21.6 8 Sudoeste 10 Sudoeste 0 -- -- 22
2019-08-13 00:00:00 22.6 8 Sudoeste 17 Norte 0 -- -- 20
2019-08-12 23:00:00 23.6 9 Oeste 20 Norte 0 -- -- 19
2019-08-12 22:00:00 25.9 7 Sudoeste 10 Sudoeste 0 -- -- 16
2019-08-12 21:00:00 28.1 4 Norte 19 Noroeste 0 -- -- 14
2019-08-12 20:00:00 31 8 Norte 22 Norte 0 -- -- 13
2019-08-12 19:00:00 31.7 11 Norte 24 Norte 0 -- -- 13
2019-08-12 18:00:00 31.6 10 Nordeste 21 Norte 0 -- -- 13
2019-08-12 17:00:00 31.3 11 Noroeste 23 Norte 0 -- -- 14
2019-08-12 16:00:00 30.7 13 Norte 24 Noroeste 0 -- -- 16
2019-08-12 15:00:00 30.1 9 Norte 25 Norte 0 -- -- 18
2019-08-12 14:00:00 28.4 13 Norte 27 Norte 0 -- -- 22
2019-08-12 13:00:00 26.5 10 Norte 24 Nordeste 0 -- -- 26
2019-08-12 12:00:00 25 14 Nordeste 25 Nordeste 0 -- -- 29
2019-08-12 11:00:00 23.6 13 Nordeste 18 Nordeste 0 -- -- 30
2019-08-12 10:00:00 19.1 0 Calma 8 Sudoeste 0 -- -- 38
2019-08-12 09:00:00 17 0 Calma 16 Nordeste 0 -- -- 41
2019-08-12 08:00:00 17.8 9 Nordeste 19 Nordeste 0 -- -- 38
2019-08-12 07:00:00 18 14 Nordeste 19 Nordeste 0 -- -- 37
2019-08-12 06:00:00 19.4 11 Nordeste 15 Nordeste 0 -- -- 34
2019-08-12 05:00:00 20.4 9 Nordeste 18 Nordeste 0 -- -- 32
2019-08-12 04:00:00 20.4 7 Nordeste 14 Norte 0 -- -- 31
2019-08-12 03:00:00 20.8 8 Nordeste 21 Nordeste 0 -- -- 31
2019-08-12 02:00:00 21.7 10 Nordeste 23 Norte 0 -- -- 30
2019-08-12 01:00:00 23.4 15 Norte 29 Norte 0 -- -- 28
2019-08-12 00:00:00 25 11 Norte 31 Noroeste 0 -- -- 22
2019-08-11 23:00:00 25.9 9 Norte 26 Noroeste 0 -- -- 22
2019-08-11 22:00:00 26.3 6 Sur 20 Noroeste 0 -- -- 24
2019-08-11 21:00:00 28.1 7 Noroeste 26 Noroeste 0 -- -- 23
2019-08-11 20:00:00 29.6 14 Noroeste 23 Noroeste 0 -- -- 22
2019-08-11 19:00:00 31.7 12 Noroeste 22 Oeste 0 -- -- 21
2019-08-11 18:00:00 31.5 7 Noroeste 30 Noroeste 0 -- -- 19
2019-08-11 17:00:00 31.1 15 Noroeste 30 Norte 0 -- -- 21
2019-08-11 16:00:00 31.1 12 Noroeste 24 Noroeste 0 -- -- 26
2019-08-11 15:00:00 31.1 14 Norte 37 Norte 0 -- -- 25
2019-08-11 14:00:00 30 15 Noroeste 27 Norte 0 -- -- 31
2019-08-11 13:00:00 29.4 8 Nordeste 17 Nordeste 0 -- -- 30
2019-08-11 12:00:00 27.4 8 Noroeste 14 Norte 0 -- -- 33
2019-08-11 11:00:00 26.1 3 Este 9 Norte 0 -- -- 37
2019-08-11 10:00:00 22.5 3 Sudoeste 7 Sudoeste 0 -- -- 47
2019-08-11 09:00:00 19.6 6 Sudoeste 8 Sur 0 -- -- 54
2019-08-11 08:00:00 18.7 4 Oeste 10 Noroeste 0 -- -- 55
2019-08-11 07:00:00 19.1 6 Sur 13 Sudoeste 0 -- -- 53
2019-08-11 06:00:00 20.3 5 Sudoeste 19 Sudoeste 0 -- -- 50
2019-08-11 05:00:00 21.3 17 Sudoeste 35 Sur 0 -- -- 47
2019-08-11 04:00:00 22.6 19 Sudoeste 28 Sudoeste 0 -- -- 43
2019-08-11 03:00:00 24.4 12 Sudoeste 23 Sudoeste 0 -- -- 43
2019-08-11 02:00:00 24.8 12 Sudoeste 22 Sudoeste 0 -- -- 48
2019-08-11 01:00:00 25.7 14 Sudoeste 33 Sudoeste 0 -- -- 47
2019-08-11 00:00:00 27.2 22 Sudoeste 33 Sudoeste 0 -- -- 43
2019-08-10 23:00:00 28.3 18 Sudoeste 23 Sudoeste 0 -- -- 38
2019-08-10 22:00:00 29.5 9 Sudoeste 21 Sudoeste 0 -- -- 40
2019-08-10 21:00:00 31.5 14 Sudoeste 25 Sudoeste 0 -- -- 37
2019-08-10 20:00:00 33.2 17 Sudoeste 29 Oeste 0 -- -- 32
2019-08-10 19:00:00 34.3 17 Sudoeste 29 Sudoeste 0 -- -- 29
2019-08-10 18:00:00 34.9 13 Sudoeste 29 Oeste 0 -- -- 28
2019-08-10 17:00:00 34.7 10 Sur 24 Nordeste 0 -- -- 28
2019-08-10 16:00:00 33.4 11 Norte 22 Norte 0 -- -- 40
2019-08-10 15:00:00 32.5 17 Nordeste 27 Nordeste 0 -- -- 42
2019-08-10 14:00:00 31.1 16 Nordeste 22 Nordeste 0 -- -- 46
2019-08-10 13:00:00 29.9 13 Nordeste 21 Nordeste 0 -- -- 50
2019-08-10 12:00:00 28.7 6 Nordeste 13 Nordeste 0 -- -- 55
2019-08-10 11:00:00 25.9 5 Norte 12 Este 0 -- -- 66
2019-08-10 10:00:00 23.2 7 Este 20 Este 0 -- -- 73
2019-08-10 09:00:00 21.8 10 Nordeste 17 Nordeste 0 -- -- 74
2019-08-10 08:00:00 19.6 4 Nordeste 8 Norte 0 -- -- 78
2019-08-10 07:00:00 20.7 0 Calma 9 Sudoeste 0 -- -- 80
2019-08-10 06:00:00 21.3 7 Sur 15 Sudoeste 0 -- -- 78
2019-08-10 05:00:00 21.8 9 Sudoeste 17 Sudoeste 0 -- -- 76
2019-08-10 04:00:00 22.5 12 Sudoeste 18 Sudoeste 0 -- -- 73
2019-08-10 03:00:00 23.4 11 Sudoeste 19 Sudoeste 0 -- -- 64
2019-08-10 02:00:00 24.4 12 Sudoeste 18 Sudoeste 0 -- -- 58
2019-08-10 01:00:00 25 11 Sudoeste 27 Sudoeste 0 -- -- 57
2019-08-10 00:00:00 26 20 Sudoeste 29 Sur 0 -- -- 51
2019-08-09 23:00:00 27.3 10 Sudeste 18 Sudoeste 0 -- -- 42
2019-08-09 22:00:00 28.5 13 Sudoeste 21 Sudoeste 0 -- -- 38
2019-08-09 21:00:00 30.5 15 Sudoeste 24 Sudoeste 0 -- -- 33
2019-08-09 20:00:00 32.4 15 Sudoeste 27 Sudoeste 0 -- -- 33
2019-08-09 19:00:00 33.3 20 Sudoeste 33 Sudoeste 0 -- -- 30
2019-08-09 18:00:00 33.7 23 Sudoeste 29 Sudoeste 0 -- -- 27
2019-08-09 17:00:00 34.3 18 Sudoeste 28 Sudoeste 0 -- -- 25
2019-08-09 16:00:00 34 16 Sudoeste 27 Sudoeste 0 -- -- 22
2019-08-09 15:00:00 33.9 7 Norte 28 Nordeste 0 -- -- 27
2019-08-09 14:00:00 32.3 17 Nordeste 26 Nordeste 0 -- -- 31
2019-08-09 13:00:00 31.2 11 Norte 19 Norte 0 -- -- 32
2019-08-09 12:00:00 30.2 5 Nordeste 13 Nordeste 0 -- -- 34
2019-08-09 11:00:00 28 4 Nordeste 9 Nordeste 0 -- -- 37
2019-08-09 10:00:00 24.2 4 Sudoeste 12 Oeste 0 -- -- 39
2019-08-09 09:00:00 20 7 Sudoeste 12 Sudoeste 0 -- -- 47
2019-08-09 08:00:00 18.6 8 Oeste 9 Oeste 0 -- -- 49
2019-08-09 07:00:00 20 6 Sudoeste 13 Sur 0 -- -- 46
2019-08-09 06:00:00 20.8 12 Sudoeste 19 Sudoeste 0 -- -- 44
2019-08-09 05:00:00 22.2 12 Sudoeste 19 Sur 0 -- -- 40
2019-08-09 04:00:00 22.1 12 Sudoeste 18 Sudoeste 0 -- -- 40
2019-08-09 03:00:00 23.3 10 Sudoeste 30 Sudoeste 0 -- -- 37
2019-08-09 02:00:00 24.8 6 Noroeste 36 Sudoeste 0 -- -- 38
2019-08-09 01:00:00 26.3 25 Sudoeste 37 Sudoeste 0 -- -- 39
2019-08-09 00:00:00 27.4 11 Sur 18 Sur 0 -- -- 30
2019-08-08 23:00:00 28.5 12 Sur 22 Sudoeste 0 -- -- 24
2019-08-08 22:00:00 30 17 Sudoeste 22 Sudoeste 0 -- -- 25
2019-08-08 21:00:00 32.6 12 Sudoeste 29 Oeste 0 -- -- 21
2019-08-08 20:00:00 34.6 19 Oeste 30 Oeste 0 -- -- 20
2019-08-08 19:00:00 35.4 18 Oeste 32 Oeste 0 -- -- 22
2019-08-08 18:00:00 36.4 14 Oeste 32 Oeste 0 -- -- 21
2019-08-08 17:00:00 36.3 15 Sudoeste 34 Oeste 0 -- -- 18
2019-08-08 16:00:00 36 18 Sur 33 Sudoeste 0 -- -- 18
2019-08-08 15:00:00 35.1 10 Sudoeste 23 Sudeste 0 -- -- 20
2019-08-08 14:00:00 33.6 9 Sudoeste 18 Nordeste 0 -- -- 26
2019-08-08 13:00:00 32.7 8 Nordeste 17 Nordeste 0 -- -- 28
2019-08-08 12:00:00 30.8 9 Nordeste 16 Nordeste 0 -- -- 32
2019-08-08 11:00:00 28.9 6 Nordeste 10 Nordeste 0 -- -- 36
2019-08-08 10:00:00 24.2 4 Sur 6 Sur 0 -- -- 49
2019-08-08 09:00:00 20.6 2 Sudoeste 15 Sudoeste 0 -- -- 59
2019-08-08 08:00:00 17.5 10 Sudoeste 13 Sudoeste 0 -- -- 67
2019-08-08 07:00:00 17.4 6 Sur 12 Oeste 0 -- -- 65
2019-08-08 06:00:00 18.8 5 Sudoeste 9 Sudoeste 0 -- -- 60
2019-08-08 05:00:00 20 5 Sudoeste 13 Sudoeste 0 -- -- 59
2019-08-08 04:00:00 20.9 8 Sudoeste 10 Sudoeste 0 -- -- 51
2019-08-08 03:00:00 23 8 Sudoeste 10 Sur 0 -- -- 50
2019-08-08 02:00:00 24 9 Sur 14 Sudoeste 0 -- -- 47
2019-08-08 01:00:00 24.2 6 Oeste 12 Sudoeste 0 -- -- 38
2019-08-08 00:00:00 24.8 5 Norte 12 Sur 0 -- -- 36
2019-08-07 23:00:00 26.2 8 Sudoeste 10 Sur 0 -- -- 33
2019-08-07 22:00:00 27.8 7 Sur 9 Sur 0 -- -- 30
2019-08-07 21:00:00 29.9 3 Sur 9 Sur 0 -- -- 28
2019-08-07 20:00:00 31 7 Sudoeste 15 Sudoeste 0 -- -- 26
2019-08-07 19:00:00 31.6 12 Sudoeste 19 Oeste 0 -- -- 24
2019-08-07 18:00:00 32.6 5 Norte 27 Norte 0 -- -- 28
2019-08-07 17:00:00 33.1 13 Norte 27 Nordeste 0 -- -- 27
2019-08-07 16:00:00 32.9 13 Norte 26 Norte 0 -- -- 29
2019-08-07 15:00:00 32.4 17 Nordeste 30 Nordeste 0 -- -- 29
2019-08-07 14:00:00 32.8 12 Nordeste 25 Nordeste 0 -- -- 27
2019-08-07 13:00:00 31.7 7 Norte 15 Nordeste 0 -- -- 26
2019-08-07 12:00:00 29.5 9 Norte 14 Norte 0 -- -- 27
2019-08-07 11:00:00 28.2 5 Nordeste 11 Nordeste 0 -- -- 24
2019-08-07 10:00:00 24.8 3 Sudoeste 5 Sudoeste 0 -- -- 28
2019-08-07 09:00:00 21.1 0 Calma 12 Sudoeste 0 -- -- 31
2019-08-07 08:00:00 19.2 8 Sudoeste 10 Sudoeste 0 -- -- 31
2019-08-07 07:00:00 19.9 6 Sudoeste 7 Sudoeste 0 -- -- 28
2019-08-07 06:00:00 20.8 4 Oeste 9 Sudoeste 0 -- -- 26
2019-08-07 05:00:00 22.8 0 Calma 15 Sudoeste 0 -- -- 23
2019-08-07 04:00:00 23.5 13 Sudoeste 15 Sudoeste 0 -- -- 21
2019-08-07 03:00:00 24.6 11 Sudoeste 17 Sur 0 -- -- 21
2019-08-07 02:00:00 25 6 Sudoeste 21 Sudoeste 0 -- -- 23
2019-08-07 01:00:00 26 17 Sudoeste 30 Sudoeste 0 -- -- 24
2019-08-07 00:00:00 27.6 18 Sudoeste 26 Sur 0 -- -- 22
2019-08-06 23:00:00 29.2 18 Sudoeste 25 Sur 0 -- -- 20
2019-08-06 22:00:00 29.6 13 Sudoeste 17 Sudoeste 0 -- -- 22
2019-08-06 21:00:00 32.3 12 Sudoeste 23 Sudoeste 0 -- -- 19
2019-08-06 20:00:00 34.8 17 Sudoeste 25 Sudoeste 0 -- -- 17
2019-08-06 19:00:00 36.1 17 Sudoeste 27 Sudoeste 0 -- -- 17
2019-08-06 18:00:00 37.1 13 Sudoeste 29 Sudoeste 0 -- -- 16
2019-08-06 17:00:00 36.9 18 Oeste 30 Oeste 0 -- -- 16
2019-08-06 16:00:00 36.3 21 Sudoeste 32 Sudoeste 0 -- -- 18
2019-08-06 15:00:00 36.2 7 Sur 21 Oeste 0 -- -- 19
2019-08-06 14:00:00 34.6 12 Nordeste 24 Nordeste 0 -- -- 22
2019-08-06 13:00:00 33 14 Nordeste 22 Nordeste 0 -- -- 24
2019-08-06 12:00:00 31.2 15 Nordeste 21 Nordeste 0 -- -- 26
2019-08-06 11:00:00 29.4 9 Nordeste 12 Nordeste 0 -- -- 26
2019-08-06 10:00:00 25.2 0 Calma 12 Oeste 0 -- -- 32
2019-08-06 09:00:00 20.6 7 Sudoeste 16 Sur 0 -- -- 40
2019-08-06 08:00:00 17.5 9 Sudoeste 13 Sudoeste 0 -- -- 46
2019-08-06 07:00:00 18.8 8 Sudoeste 10 Sudoeste 0 -- -- 42
2019-08-06 06:00:00 20.8 3 Nordeste 11 Sur 0 -- -- 38
2019-08-06 05:00:00 22.7 9 Sur 13 Sudoeste 0 -- -- 35
2019-08-06 04:00:00 23.1 8 Sur 15 Sur 0 -- -- 34
2019-08-06 03:00:00 24.1 10 Sudoeste 18 Sudoeste 0 -- -- 34
2019-08-06 02:00:00 25.5 12 Sur 31 Sudoeste 0 -- -- 31
2019-08-06 01:00:00 26.5 16 Sudoeste 24 Sudoeste 0 -- -- 32
2019-08-06 00:00:00 27.9 18 Sudoeste 29 Sudoeste 0 -- -- 31
2019-08-05 23:00:00 29.3 19 Sudoeste 29 Sudoeste 0 -- -- 31
2019-08-05 22:00:00 30.6 12 Sur 17 Sur 0 -- -- 28
2019-08-05 21:00:00 32.7 12 Sudoeste 29 Sudoeste 0 -- -- 28
2019-08-05 20:00:00 34.4 21 Sudoeste 33 Oeste 0 -- -- 26
2019-08-05 19:00:00 35.5 19 Oeste 32 Sudoeste 0 -- -- 27
2019-08-05 18:00:00 36.2 19 Sudoeste 34 Sudoeste 0 -- -- 24
2019-08-05 17:00:00 36.9 13 Oeste 24 Nordeste 0 -- -- 23
2019-08-05 16:00:00 36.6 11 Norte 29 Norte 0 -- -- 26
2019-08-05 15:00:00 35.3 19 Norte 30 Norte 0 -- -- 26
2019-08-05 14:00:00 35.1 18 Norte 27 Norte 0 -- -- 25
2019-08-05 13:00:00 34.2 13 Nordeste 23 Norte 0 -- -- 26
2019-08-05 12:00:00 32.3 8 Norte 13 Norte 0 -- -- 25
2019-08-05 11:00:00 30.3 5 Norte 11 Nordeste 0 -- -- 30
2019-08-05 10:00:00 26.1 0 Calma 6 Sudoeste 0 -- -- 36
2019-08-05 09:00:00 20.6 4 Sudoeste 15 Sudoeste 0 -- -- 48
2019-08-05 08:00:00 18.3 12 Sudoeste 14 Sudoeste 0 -- -- 53
2019-08-05 07:00:00 19 12 Sudoeste 13 Sudoeste 0 -- -- 50
2019-08-05 06:00:00 19.3 3 Sur 14 Sudoeste 0 -- -- 49
2019-08-05 05:00:00 20.1 10 Sudoeste 14 Sudoeste 0 -- -- 48
2019-08-05 04:00:00 21.2 10 Sudoeste 11 Sudoeste 0 -- -- 46
2019-08-05 03:00:00 23.9 2 Norte 6 Nordeste 0 -- -- 40
2019-08-05 02:00:00 25.6 6 Oeste 18 Sudoeste 0 -- -- 39
2019-08-05 01:00:00 26.6 15 Sudoeste 23 Sudoeste 0 -- -- 37
2019-08-05 00:00:00 28 18 Sudoeste 26 Sudoeste 0 -- -- 32
2019-08-04 23:00:00 28.6 13 Sudoeste 18 Sudoeste 0 -- -- 32
2019-08-04 22:00:00 29.8 9 Sur 17 Oeste 0 -- -- 31
2019-08-04 21:00:00 32.4 10 Oeste 27 Sudoeste 0 -- -- 26
2019-08-04 20:00:00 34 18 Sudoeste 31 Sudoeste 0 -- -- 25
2019-08-04 19:00:00 35.2 20 Sudoeste 31 Sudoeste 0 -- -- 24
2019-08-04 18:00:00 36.1 16 Sudoeste 30 Norte 0 -- -- 22
2019-08-04 17:00:00 35.8 15 Norte 31 Nordeste 0 -- -- 26
2019-08-04 16:00:00 35 14 Norte 27 Norte 0 -- -- 26
2019-08-04 15:00:00 35 13 Nordeste 28 Norte 0 -- -- 25
2019-08-04 14:00:00 33.7 13 Nordeste 27 Norte 0 -- -- 27
2019-08-04 13:00:00 32.6 14 Nordeste 22 Nordeste 0 -- -- 26
2019-08-04 12:00:00 31.2 8 Nordeste 13 Este 0 -- -- 29
2019-08-04 11:00:00 28.6 4 Norte 9 Noroeste 0 -- -- 33
2019-08-04 10:00:00 26.6 3 Este 6 Este 0 -- -- 37
2019-08-04 09:00:00 21.7 2 Oeste 5 Sur 0 -- -- 47
2019-08-04 08:00:00 19.3 5 Sudoeste 6 Sudoeste 0 -- -- 50
2019-08-04 07:00:00 19.8 0 Calma 13 Sudoeste 0 -- -- 48
2019-08-04 06:00:00 20.4 10 Sudoeste 13 Sudoeste 0 -- -- 46
2019-08-04 05:00:00 21.5 11 Sudoeste 14 Sudoeste 0 -- -- 44
2019-08-04 04:00:00 23.5 9 Sudoeste 12 Sudoeste 0 -- -- 37
2019-08-04 03:00:00 24.6 6 Sur 22 Sudoeste 0 -- -- 35
2019-08-04 02:00:00 25.6 15 Sudoeste 22 Sudoeste 0 -- -- 33
2019-08-04 01:00:00 25.8 14 Sudoeste 32 Sudoeste 0 -- -- 38
2019-08-04 00:00:00 26.7 17 Sudoeste 29 Sudoeste 0 -- -- 37
2019-08-03 23:00:00 28 21 Sudoeste 27 Sudoeste 0 -- -- 35
2019-08-03 22:00:00 29.5 13 Sudoeste 23 Sudoeste 0 -- -- 36
2019-08-03 21:00:00 31.8 15 Sudoeste 27 Oeste 0 -- -- 31
2019-08-03 20:00:00 33.9 15 Oeste 28 Oeste 0 -- -- 27
2019-08-03 19:00:00 34.8 18 Sudoeste 29 Sudoeste 0 -- -- 31
2019-08-03 18:00:00 35.3 14 Sudoeste 31 Sudoeste 0 -- -- 32
2019-08-03 17:00:00 35.7 12 Oeste 30 Sudoeste 0 -- -- 32
2019-08-03 16:00:00 35.5 5 Oeste 25 Oeste 0 -- -- 29
2019-08-03 15:00:00 34.8 9 Noroeste 23 Norte 0 -- -- 24
2019-08-03 14:00:00 34.4 12 Norte 27 Nordeste 0 -- -- 23
2019-08-03 13:00:00 33 14 Nordeste 22 Nordeste 0 -- -- 24
2019-08-03 12:00:00 31.5 13 Nordeste 18 Nordeste 0 -- -- 25
2019-08-03 11:00:00 29.5 4 Noroeste 9 Noroeste 0 -- -- 27
2019-08-03 10:00:00 25.2 3 Sudoeste 6 Sudoeste 0 -- -- 34
2019-08-03 09:00:00 20.9 4 Sudoeste 9 Oeste 0 -- -- 41
2019-08-03 08:00:00 19.3 5 Oeste 7 Oeste 0 -- -- 43
2019-08-03 07:00:00 19.7 3 Oeste 10 Sudoeste 0 -- -- 42
2019-08-03 06:00:00 20.7 8 Oeste 14 Sudoeste 0 -- -- 39
2019-08-03 05:00:00 20.5 12 Sudoeste 15 Sudoeste 0 -- -- 39
2019-08-03 04:00:00 21.2 12 Sudoeste 15 Sudoeste 0 -- -- 39
2019-08-03 03:00:00 23.3 8 Sudoeste 11 Sudoeste 0 -- -- 35
2019-08-03 02:00:00 25.1 9 Sur 12 Sudoeste 0 -- -- 32
2019-08-03 01:00:00 26.1 10 Sudoeste 20 Sudoeste 0 -- -- 30
2019-08-03 00:00:00 27.5 16 Sudoeste 30 Sudoeste 0 -- -- 29
2019-08-02 23:00:00 29 18 Sudoeste 24 Sudoeste 0 -- -- 26
2019-08-02 22:00:00 30 12 Sur 15 Sur 0 -- -- 24
2019-08-02 21:00:00 32.9 9 Oeste 26 Sudoeste 0 -- -- 22
2019-08-02 20:00:00 34.4 21 Sudoeste 28 Sudoeste 0 -- -- 18
2019-08-02 19:00:00 35.3 20 Sudoeste 31 Sudoeste 0 -- -- 19
2019-08-02 18:00:00 36.1 18 Sudoeste 30 Oeste 0 -- -- 19
2019-08-02 17:00:00 36.4 14 Noroeste 28 Nordeste 0 -- -- 21
2019-08-02 16:00:00 35.3 17 Nordeste 23 Norte 0 -- -- 25
2019-08-02 15:00:00 34.4 11 Norte 23 Norte 0 -- -- 26
2019-08-02 14:00:00 33.8 14 Nordeste 27 Nordeste 0 -- -- 27
2019-08-02 13:00:00 33 15 Nordeste 26 Nordeste 0 -- -- 29
2019-08-02 12:00:00 31.4 15 Nordeste 21 Nordeste 0 -- -- 32
2019-08-02 11:00:00 29.1 8 Nordeste 13 Nordeste 0 -- -- 35
2019-08-02 10:00:00 24.4 3 Sudoeste 8 Sudoeste 0 -- -- 43
2019-08-02 09:00:00 20.8 4 Oeste 17 Oeste 0 -- -- 49
2019-08-02 08:00:00 18.2 11 Sudoeste 12 Sudoeste 0 -- -- 55
2019-08-02 07:00:00 19.4 8 Sudoeste 12 Sudoeste 0 -- -- 52
2019-08-02 06:00:00 20.9 6 Sudoeste 8 Sur 0 -- -- 47
2019-08-02 05:00:00 22.4 4 Sur 15 Sudoeste 0 -- -- 43
2019-08-02 04:00:00 23.1 10 Sur 17 Sudoeste 0 -- -- 42
2019-08-02 03:00:00 24.2 14 Sudoeste 23 Sudoeste 0 -- -- 44
2019-08-02 02:00:00 25.4 15 Sudoeste 24 Sudoeste 0 -- -- 47
2019-08-02 01:00:00 26.1 14 Sudoeste 23 Sudoeste 0 -- -- 49
2019-08-02 00:00:00 27.2 18 Sudoeste 24 Sudoeste 0 -- -- 44
2019-08-01 23:00:00 27.5 12 Sudoeste 15 Sudoeste 0 -- -- 43
2019-08-01 22:00:00 29.2 12 Sudoeste 19 Sudoeste 0 -- -- 41
2019-08-01 21:00:00 31.1 13 Sudoeste 22 Sudoeste 0 -- -- 40
2019-08-01 20:00:00 32.9 14 Sudoeste 22 Sudoeste 0 -- -- 38
2019-08-01 19:00:00 33.9 13 Sudoeste 26 Sudoeste 0 -- -- 37
2019-08-01 18:00:00 33.8 18 Nordeste 27 Nordeste 0 -- -- 38
2019-08-01 17:00:00 33.8 10 Nordeste 26 Norte 0 -- -- 39
2019-08-01 16:00:00 33.5 14 Norte 27 Norte 0 -- -- 40
2019-08-01 15:00:00 32 16 Nordeste 25 Nordeste 0 -- -- 41
2019-08-01 14:00:00 31.3 11 Norte 23 Norte 0 -- -- 41
2019-08-01 13:00:00 30.6 8 Nordeste 15 Nordeste 0 -- -- 42
2019-08-01 12:00:00 28.8 5 Este 16 Nordeste 0 -- -- 46
2019-08-01 11:00:00 26.7 4 Norte 9 Norte 0 -- -- 54
2019-08-01 10:00:00 23.5 3 Sudoeste 10 Sudoeste 0 -- -- 67
2019-08-01 09:00:00 20.6 8 Sudoeste 10 Sudoeste 0 -- -- 78
2019-08-01 08:00:00 19.3 5 Sudoeste 12 Oeste 0 -- -- 81
2019-08-01 07:00:00 19.6 8 Sudoeste 10 Sudoeste 0 -- -- 81
2019-08-01 06:00:00 20.6 5 Sudoeste 16 Sur 0 -- -- 78
2019-08-01 05:00:00 21 13 Sudoeste 31 Sudoeste 0 -- -- 77
2019-08-01 04:00:00 21.4 19 Sur 29 Sudoeste 0 -- -- 75
2019-08-01 03:00:00 21.7 24 Sudoeste 33 Sudoeste 0 -- -- 74
2019-08-01 02:00:00 22.5 21 Sudoeste 31 Sudoeste 0 -- -- 69
2019-08-01 01:00:00 23.2 23 Sudoeste 33 Sur 0 -- -- 66
2019-08-01 00:00:00 24.1 21 Sudoeste 28 Sudoeste 0 -- -- 62
2019-07-31 23:00:00 25.3 18 Sudoeste 32 Sudoeste 0 -- -- 57
2019-07-31 22:00:00 26.3 25 Sudoeste 37 Sudoeste 0 -- -- 55
2019-07-31 21:00:00 28.2 26 Sudoeste 41 Sudoeste 0 -- -- 49
2019-07-31 20:00:00 31.7 24 Sudoeste 36 Oeste 0 -- -- 39
2019-07-31 19:00:00 33.7 22 Sudoeste 30 Oeste 0 -- -- 34
2019-07-31 18:00:00 35.3 11 Norte 28 Norte 0 -- -- 28
2019-07-31 17:00:00 35.5 10 Norte 29 Norte 0 -- -- 26
2019-07-31 16:00:00 35.3 18 Norte 30 Norte 0 -- -- 25
2019-07-31 15:00:00 33.6 12 Noroeste 30 Nordeste 0 -- -- 27
2019-07-31 14:00:00 33.6 10 Nordeste 24 Norte 0 -- -- 28
2019-07-31 13:00:00 32.2 7 Norte 17 Nordeste 0 -- -- 30
2019-07-31 12:00:00 30 6 Oeste 14 Oeste 0 -- -- 34
2019-07-31 11:00:00 27.6 4 Oeste 10 Oeste 0 -- -- 37
2019-07-31 10:00:00 25.6 4 Sudeste 11 Sudoeste 0 -- -- 36
2019-07-31 09:00:00 21.2 5 Sudoeste 19 Oeste 0 -- -- 43
2019-07-31 08:00:00 18.5 14 Sudoeste 20 Oeste 0 -- -- 45
2019-07-31 07:00:00 19 7 Oeste 10 Sudoeste 0 -- -- 43
2019-07-31 06:00:00 18.2 8 Sudoeste 14 Sudoeste 0 -- -- 45
2019-07-31 05:00:00 20.6 2 Noroeste 9 Sudoeste 0 -- -- 39
2019-07-31 04:00:00 20.9 8 Sudoeste 12 Sudoeste 0 -- -- 38
2019-07-31 03:00:00 22.2 6 Oeste 11 Sudoeste 0 -- -- 35
2019-07-31 02:00:00 23.6 3 Sur 8 Sur 0 -- -- 33
2019-07-31 01:00:00 24.6 4 Oeste 13 Sudoeste 0 -- -- 31
2019-07-31 00:00:00 25.4 10 Sudoeste 13 Sudoeste 0 -- -- 30
2019-07-30 23:00:00 28.2 8 Sur 9 Sur 0 -- -- 26
2019-07-30 22:00:00 29.9 4 Sur 13 Sur 0 -- -- 24
2019-07-30 21:00:00 32.3 8 Norte 18 Noroeste 0 -- -- 22
2019-07-30 20:00:00 33.6 14 Norte 26 Noroeste 0 -- -- 21
2019-07-30 19:00:00 34.2 14 Norte 27 Noroeste 0 -- -- 22
2019-07-30 18:00:00 34.9 15 Norte 28 Norte 0 -- -- 23
2019-07-30 17:00:00 34.8 16 Norte 28 Norte 0 -- -- 24
2019-07-30 16:00:00 34.6 9 Este 26 Norte 0 -- -- 24
2019-07-30 15:00:00 33.6 8 Norte 25 Nordeste 0 -- -- 25
2019-07-30 14:00:00 32.2 14 Norte 26 Este 0 -- -- 27
2019-07-30 13:00:00 30.8 16 Nordeste 24 Nordeste 0 -- -- 29
2019-07-30 12:00:00 28.7 14 Nordeste 20 Nordeste 0 -- -- 32
2019-07-30 11:00:00 26.8 10 Nordeste 17 Nordeste 0 -- -- 34
2019-07-30 10:00:00 24.5 10 Nordeste 14 Nordeste 0 -- -- 38
2019-07-30 09:00:00 19.7 0 Calma 9 Sudoeste 0 -- -- 53
2019-07-30 08:00:00 16.5 5 Sudoeste 9 Sudoeste 0 -- -- 63
2019-07-30 07:00:00 17.1 7 Sudoeste 8 Sudoeste 0 -- -- 63
2019-07-30 06:00:00 17.7 6 Sudoeste 10 Sudoeste 0 -- -- 62
2019-07-30 05:00:00 19.3 5 Sudoeste 8 Sudoeste 0 -- -- 60
2019-07-30 04:00:00 21.6 0 Calma 6 Sudoeste 0 -- -- 55
2019-07-30 03:00:00 22.7 4 Sudoeste 9 Sudoeste 0 -- -- 52
2019-07-30 02:00:00 24 8 Sudoeste 15 Sur 0 -- -- 47
2019-07-30 01:00:00 25.5 10 Sudoeste 22 Sudoeste 0 -- -- 42
2019-07-30 00:00:00 26 13 Sudoeste 24 Sudoeste 0 -- -- 39
2019-07-29 23:00:00 26.7 14 Sur 19 Sur 0 -- -- 32
2019-07-29 22:00:00 27.7 5 Sur 15 Sudoeste 0 -- -- 30
2019-07-29 21:00:00 30.5 10 Sudoeste 22 Oeste 0 -- -- 27
2019-07-29 20:00:00 32.3 12 Oeste 26 Noroeste 0 -- -- 25
2019-07-29 19:00:00 32.6 14 Oeste 26 Oeste 0 -- -- 27
2019-07-29 18:00:00 33.3 10 Noroeste 27 Norte 0 -- -- 28
2019-07-29 17:00:00 32.3 11 Norte 35 Norte 0 -- -- 32
2019-07-29 16:00:00 32.1 18 Norte 33 Nordeste 0 -- -- 34
2019-07-29 15:00:00 31.5 19 Norte 30 Norte 0 -- -- 37
2019-07-29 14:00:00 30.7 12 Nordeste 22 Nordeste 0 -- -- 39
2019-07-29 13:00:00 29.3 11 Nordeste 21 Nordeste 0 -- -- 42
2019-07-29 12:00:00 27.7 9 Norte 17 Norte 0 -- -- 45
2019-07-29 11:00:00 25.2 2 Sudoeste 12 Oeste 0 -- -- 50
2019-07-29 10:00:00 22.7 5 Sudoeste 9 Sudoeste 0 -- -- 57
2019-07-29 09:00:00 20 4 Sudoeste 6 Sur 0 -- -- 66
2019-07-29 08:00:00 18.4 0 Calma 5 Sur 0 -- -- 71
2019-07-29 07:00:00 17.9 3 Sudoeste 8 Sur 0 -- -- 73
2019-07-29 06:00:00 18.7 6 Sudoeste 7 Sudoeste 0 -- -- 70
2019-07-29 05:00:00 19.4 6 Sudoeste 9 Sur 0 -- -- 69
2019-07-29 04:00:00 20.3 6 Sur 10 Sudoeste 0 -- -- 68
2019-07-29 03:00:00 21 9 Sudoeste 22 Sudoeste 0 -- -- 66
2019-07-29 02:00:00 21.6 13 Sudoeste 24 Sudoeste 0 -- -- 65
2019-07-29 01:00:00 22.9 15 Sudoeste 32 Sudoeste 0 -- -- 58
2019-07-29 00:00:00 24.2 16 Sudoeste 23 Sudoeste 0 -- -- 47
2019-07-28 23:00:00 25.2 10 Sudoeste 15 Sur 0 -- -- 44
2019-07-28 22:00:00 26.4 10 Sudoeste 18 Sudoeste 0 -- -- 42
2019-07-28 21:00:00 28.2 15 Sudoeste 26 Oeste 0 -- -- 40
2019-07-28 20:00:00 29.8 17 Sudoeste 27 Sudoeste 0 -- -- 39
2019-07-28 19:00:00 30.9 17 Sudoeste 28 Sudoeste 0 -- -- 38
2019-07-28 18:00:00 31.1 15 Sudoeste 30 Sudoeste 0 -- -- 37
2019-07-28 17:00:00 31.5 10 Oeste 30 Sudoeste 0 -- -- 37
2019-07-28 16:00:00 30.8 9 Oeste 24 Sudoeste 0 -- -- 37
2019-07-28 15:00:00 29.5 9 Sur 25 Oeste 0 -- -- 42
2019-07-28 14:00:00 28.7 9 Noroeste 21 Sudoeste 0 -- -- 47
2019-07-28 13:00:00 26.1 9 Norte 22 Nordeste 0 -- -- 55
2019-07-28 12:00:00 24.6 13 Nordeste 29 Norte 0 -- -- 59
2019-07-28 11:00:00 22.1 8 Nordeste 19 Nordeste 0 -- -- 68
2019-07-28 10:00:00 20.8 14 Nordeste 18 Nordeste 0 -- -- 75
2019-07-28 09:00:00 19.9 11 Nordeste 17 Nordeste 0 -- -- 79
2019-07-28 08:00:00 19 12 Nordeste 18 Nordeste 0 -- -- 82
2019-07-28 07:00:00 19.4 6 Nordeste 10 Nordeste 0 -- -- 81
2019-07-28 06:00:00 19.3 4 Sur 9 Sudoeste 0 -- -- 81
2019-07-28 05:00:00 19.4 8 Sudoeste 19 Sudoeste 0 -- -- 82
2019-07-28 04:00:00 19.8 11 Sudoeste 16 Sudoeste 0 -- -- 81
2019-07-28 03:00:00 19.9 13 Sudoeste 24 Sudoeste 0 -- -- 80
2019-07-28 02:00:00 20.2 15 Sudoeste 25 Sudoeste 0 -- -- 79
2019-07-28 01:00:00 20.6 17 Sudoeste 22 Sudoeste 0 -- -- 76
2019-07-28 00:00:00 21 9 Sudoeste 32 Sudoeste 0 -- -- 74
2019-07-27 23:00:00 21.1 26 Sudoeste 36 Sudoeste 0 -- -- 73
2019-07-26 12:00:00 26.1 16 Sudoeste 23 Sudoeste 0 -- -- 54
2019-07-26 11:00:00 24.7 9 Sudoeste 16 Sudoeste 0 -- -- 57
2019-07-26 10:00:00 23 10 Sudoeste 15 Sudoeste 0 -- -- 59
2019-07-26 09:00:00 21.2 6 Sudoeste 10 Sudoeste 0 -- -- 62
2019-07-26 08:00:00 19.9 9 Sudoeste 15 Sur 0 -- -- 64
2019-07-26 07:00:00 20.2 11 Sur 20 Sudoeste 0 -- -- 59
2019-07-26 06:00:00 21.4 12 Sudoeste 31 Sudoeste 0 -- -- 54
2019-07-26 05:00:00 22.4 19 Sudoeste 28 Sudoeste 0 -- -- 51
2019-07-26 04:00:00 22.7 16 Sur 22 Sudoeste 0 -- -- 54
2019-07-26 03:00:00 23.2 11 Sur 15 Sudoeste 0 -- -- 52
2019-07-26 02:00:00 24.4 12 Sur 20 Sur 0 -- -- 49
2019-07-26 01:00:00 25.1 12 Sudoeste 23 Sudoeste 0 -- -- 50
2019-07-26 00:00:00 26 17 Sudoeste 32 Sudoeste 0 -- -- 49